Time;durP1;ratioP1;P1;durP2;ratioP2;P2;SDS_P1;SDS_P2;PMS_P1;PMS_P2;Temp;Humidity;BMP_temperature;BMP_pressure;BME280_temperature;BME280_humidity;BME280_pressure;Samples;Min_cycle;Max_cycle;Signal;HPM_P1;HPM_P2
2023/10/29 11:15:17;;;;;;;1.63;0.70;;;;;;;;;;5075739;27;20674;-58
2023/10/29 11:17:57;;;;;;;1.70;0.90;;;;;;;;;;5039279;28;20482;-58
2023/10/29 11:20:45;;;;;;;1.30;0.50;;;;;;;;;;5024046;28;20481;-58
2023/10/29 11:23:14;;;;;;;3.57;1.27;;;;;;;;;;5023890;28;20438;-59
2023/10/29 11:25:41;;;;;;;1.70;0.80;;;;;;;;;;5022876;28;20921;-59
2023/10/29 11:28:40;;;;;;;1.40;0.77;;;;;;;;;;5022881;28;20490;-58
2023/10/29 11:31:15;;;;;;;1.30;0.50;;;;;;;;;;5023126;28;20799;-58
2023/10/29 11:33:43;;;;;;;2.10;0.87;;;;;;;;;;5022784;28;20522;-59
2023/10/29 11:36:29;;;;;;;1.37;0.67;;;;;;;;;;5023168;28;20443;-59
2023/10/29 11:39:21;;;;;;;1.70;0.70;;;;;;;;;;5022475;28;20955;-59
2023/10/29 11:41:49;;;;;;;1.40;0.70;;;;;;;;;;5023418;28;21024;-59
2023/10/29 11:44:23;;;;;;;1.70;0.67;;;;;;;;;;5023615;28;20566;-60
2023/10/29 11:47:07;;;;;;;2.80;0.70;;;;;;;;;;5022917;28;20449;-58
2023/10/29 11:49:50;;;;;;;2.23;0.60;;;;;;;;;;5023137;28;20848;-58
2023/10/29 11:52:18;;;;;;;2.27;0.87;;;;;;;;;;5011474;28;20500;-59
2023/10/29 11:54:45;;;;;;;1.70;0.63;;;;;;;;;;5023361;28;20544;-59
2023/10/29 11:57:13;;;;;;;1.83;0.77;;;;;;;;;;5023539;28;20498;-58
2023/10/29 11:59:54;;;;;;;1.50;0.70;;;;;;;;;;5023409;28;20438;-58
2023/10/29 12:02:23;;;;;;;1.60;0.70;;;;;;;;;;5023666;28;20477;-59
2023/10/29 12:04:50;;;;;;;1.43;0.70;;;;;;;;;;5019579;28;20516;-58
2023/10/29 12:07:29;;;;;;;1.87;0.50;;;;;;;;;;5022519;28;20463;-58
2023/10/29 12:10:02;;;;;;;1.53;0.67;;;;;;;;;;5018489;28;20457;-58
2023/10/29 12:12:29;;;;;;;1.70;0.60;;;;;;;;;;5021448;28;20446;-58
2023/10/29 12:14:57;;;;;;;1.80;0.80;;;;;;;;;;5021803;28;20517;-59
2023/10/29 12:17:27;;;;;;;1.40;0.60;;;;;;;;;;5021774;28;21007;-58
2023/10/29 12:19:54;;;;;;;1.40;0.60;;;;;;;;;;5021504;28;20940;-60
2023/10/29 12:22:22;;;;;;;1.77;0.60;;;;;;;;;;5022014;28;20902;-58
2023/10/29 12:24:50;;;;;;;3.30;1.10;;;;;;;;;;5017294;28;20439;-59
2023/10/29 12:27:18;;;;;;;1.30;0.40;;;;;;;;;;5008241;28;20443;-59
2023/10/29 12:29:46;;;;;;;2.33;0.80;;;;;;;;;;5005842;28;20443;-59
2023/10/29 12:32:17;;;;;;;1.40;0.50;;;;;;;;;;5005291;28;20480;-59
2023/10/29 12:34:49;;;;;;;2.03;0.60;;;;;;;;;;5005969;28;20592;-58
2023/10/29 12:37:26;;;;;;;2.40;0.70;;;;;;;;;;5005356;28;20451;-58
2023/10/29 12:39:56;;;;;;;2.00;0.70;;;;;;;;;;5006440;28;20953;-59
2023/10/29 12:42:24;;;;;;;1.77;0.60;;;;;;;;;;5008073;28;20542;-59
2023/10/29 12:44:57;;;;;;;1.70;0.67;;;;;;;;;;5007883;28;20470;-60
2023/10/29 12:47:25;;;;;;;1.57;0.60;;;;;;;;;;5006757;28;20475;-58
2023/10/29 12:50:04;;;;;;;3.30;0.80;;;;;;;;;;5005329;28;20475;-58
2023/10/29 12:52:31;;;;;;;3.23;0.73;;;;;;;;;;5006701;28;20953;-58
2023/10/29 12:54:59;;;;;;;1.80;0.90;;;;;;;;;;5007103;28;21102;-58
2023/10/29 12:57:26;;;;;;;3.20;0.60;;;;;;;;;;5007858;28;20471;-58
2023/10/29 12:59:53;;;;;;;2.80;0.70;;;;;;;;;;5007889;28;20431;-58
2023/10/29 13:02:26;;;;;;;3.20;0.50;;;;;;;;;;5007883;28;20459;-57
2023/10/29 13:04:53;;;;;;;2.20;0.80;;;;;;;;;;5005803;28;20443;-58
2023/10/29 13:07:22;;;;;;;1.87;0.73;;;;;;;;;;5004746;28;20554;-58
2023/10/29 13:09:52;;;;;;;2.10;0.50;;;;;;;;;;5005109;28;20900;-58
2023/10/29 13:12:19;;;;;;;1.60;0.60;;;;;;;;;;5005977;28;20520;-57
2023/10/29 13:14:46;;;;;;;1.50;0.60;;;;;;;;;;5006160;28;20604;-59
2023/10/29 13:17:15;;;;;;;1.30;0.40;;;;;;;;;;5006269;28;20541;-58
2023/10/29 13:19:43;;;;;;;2.40;0.80;;;;;;;;;;5005113;28;20447;-58
2023/10/29 13:22:11;;;;;;;2.57;0.60;;;;;;;;;;5006324;28;20447;-59
2023/10/29 13:24:39;;;;;;;1.50;0.77;;;;;;;;;;5005959;28;20439;-58
2023/10/29 13:27:06;;;;;;;2.07;1.10;;;;;;;;;;5006008;28;20467;-58
2023/10/29 13:29:39;;;;;;;1.73;0.60;;;;;;;;;;5004419;28;20467;-58
2023/10/29 13:32:07;;;;;;;2.70;0.87;;;;;;;;;;5005906;28;20521;-57
2023/10/29 13:34:34;;;;;;;2.63;0.60;;;;;;;;;;5005487;28;20558;-59
2023/10/29 13:37:01;;;;;;;2.20;0.90;;;;;;;;;;5005439;28;20525;-59
2023/10/29 13:39:29;;;;;;;1.70;0.80;;;;;;;;;;5004393;28;20544;-58
2023/10/29 13:41:58;;;;;;;1.80;0.90;;;;;;;;;;5005841;28;20960;-58
2023/10/29 13:44:25;;;;;;;3.93;1.10;;;;;;;;;;5005499;28;20431;-58
2023/10/29 13:46:52;;;;;;;1.77;0.77;;;;;;;;;;5005791;28;21009;-58
2023/10/29 13:49:21;;;;;;;1.70;0.90;;;;;;;;;;5004987;28;20487;-57
2023/10/29 13:51:48;;;;;;;1.63;0.60;;;;;;;;;;5006613;28;20537;-57
2023/10/29 13:54:15;;;;;;;2.07;0.90;;;;;;;;;;5007597;28;20927;-57
2023/10/29 13:56:43;;;;;;;2.87;1.00;;;;;;;;;;5008642;28;20450;-59
2023/10/29 13:59:12;;;;;;;3.30;1.00;;;;;;;;;;5007676;28;20479;-58
2023/10/29 14:01:39;;;;;;;1.70;0.80;;;;;;;;;;5006896;28;20489;-58
2023/10/29 14:04:07;;;;;;;1.57;0.77;;;;;;;;;;5008305;28;20466;-58
2023/10/29 14:06:34;;;;;;;1.67;0.70;;;;;;;;;;5008225;28;20436;-58
2023/10/29 14:09:02;;;;;;;1.70;0.60;;;;;;;;;;5007552;28;20502;-58
2023/10/29 14:11:29;;;;;;;1.73;0.83;;;;;;;;;;5007929;28;20447;-59
2023/10/29 14:13:58;;;;;;;1.70;0.80;;;;;;;;;;5007533;28;20479;-58
2023/10/29 14:16:36;;;;;;;1.40;0.50;;;;;;;;;;5005173;28;20871;-58
2023/10/29 14:19:04;;;;;;;1.50;0.43;;;;;;;;;;5004913;28;20578;-58
2023/10/29 14:21:31;;;;;;;1.40;0.60;;;;;;;;;;5005680;28;20441;-59
2023/10/29 14:23:59;;;;;;;1.50;0.50;;;;;;;;;;5005803;28;20541;-58
2023/10/29 14:26:26;;;;;;;2.47;0.67;;;;;;;;;;5005395;28;20525;-58
2023/10/29 14:28:53;;;;;;;1.93;0.70;;;;;;;;;;5005044;28;20576;-58
2023/10/29 14:31:21;;;;;;;2.00;0.70;;;;;;;;;;5006030;28;21024;-58
2023/10/29 14:33:50;;;;;;;2.07;0.83;;;;;;;;;;5007342;28;20567;-59
2023/10/29 14:36:18;;;;;;;1.33;0.57;;;;;;;;;;5006137;28;20451;-58
2023/10/29 14:38:45;;;;;;;1.23;0.50;;;;;;;;;;5005761;28;20463;-58
2023/10/29 14:41:16;;;;;;;1.80;0.70;;;;;;;;;;5006080;28;20772;-58
2023/10/29 14:43:44;;;;;;;1.40;0.47;;;;;;;;;;5006663;28;20737;-57
2023/10/29 14:46:11;;;;;;;1.40;0.67;;;;;;;;;;5006087;28;20479;-58
2023/10/29 14:48:39;;;;;;;1.50;0.70;;;;;;;;;;5005352;28;20491;-57
2023/10/29 14:51:08;;;;;;;1.50;0.73;;;;;;;;;;5006660;28;20467;-58
2023/10/29 14:53:35;;;;;;;2.10;0.80;;;;;;;;;;5006863;28;20581;-59
2023/10/29 14:56:02;;;;;;;1.50;0.70;;;;;;;;;;5007760;28;20467;-58
2023/10/29 14:58:30;;;;;;;1.87;0.70;;;;;;;;;;5009420;23;20499;-54
2023/10/29 15:00:58;;;;;;;1.63;0.80;;;;;;;;;;4983927;28;20467;-55
2023/10/29 15:03:27;;;;;;;1.70;0.70;;;;;;;;;;4987387;28;21089;-53
2023/10/29 15:05:54;;;;;;;1.63;0.80;;;;;;;;;;4987923;28;20444;-55
2023/10/29 15:08:23;;;;;;;1.20;0.50;;;;;;;;;;4987785;28;20463;-53
2023/10/29 15:10:53;;;;;;;2.13;0.60;;;;;;;;;;4975422;28;20468;-54
2023/10/29 15:13:22;;;;;;;1.40;0.50;;;;;;;;;;4980967;28;20520;-56
2023/10/29 15:15:49;;;;;;;1.30;0.50;;;;;;;;;;4975144;28;20493;-54
2023/10/29 15:18:18;;;;;;;1.40;0.60;;;;;;;;;;4987133;28;20570;-56
2023/10/29 15:20:45;;;;;;;1.40;0.60;;;;;;;;;;4987458;28;20479;-55
2023/10/29 15:23:12;;;;;;;1.63;0.60;;;;;;;;;;4987566;28;20443;-57
2023/10/29 15:25:43;;;;;;;1.30;0.60;;;;;;;;;;4987321;28;20446;-55
2023/10/29 15:28:11;;;;;;;1.57;0.60;;;;;;;;;;4987516;28;20985;-52
2023/10/29 15:30:38;;;;;;;1.30;0.40;;;;;;;;;;4984653;28;20436;-54
2023/10/29 15:33:05;;;;;;;2.03;0.60;;;;;;;;;;4987846;28;20455;-54
2023/10/29 15:35:35;;;;;;;1.50;0.60;;;;;;;;;;4987413;28;20488;-56
2023/10/29 15:38:03;;;;;;;1.20;0.40;;;;;;;;;;4987375;28;21004;-56
2023/10/29 15:40:30;;;;;;;1.40;0.40;;;;;;;;;;4986011;28;20915;-56
2023/10/29 15:42:59;;;;;;;1.20;0.40;;;;;;;;;;4978344;28;21018;-57
2023/10/29 15:45:26;;;;;;;1.37;0.50;;;;;;;;;;4985612;28;20580;-57
2023/10/29 15:47:53;;;;;;;1.40;0.50;;;;;;;;;;4987312;28;20861;-58
2023/10/29 15:50:20;;;;;;;1.30;0.50;;;;;;;;;;4980637;28;20441;-55
2023/10/29 15:52:48;;;;;;;1.70;0.67;;;;;;;;;;4987470;28;20472;-55
2023/10/29 15:55:15;;;;;;;1.60;0.50;;;;;;;;;;4987193;28;20570;-55
2023/10/29 15:57:42;;;;;;;1.30;0.50;;;;;;;;;;4987073;28;20484;-55
2023/10/29 16:00:11;;;;;;;2.37;0.50;;;;;;;;;;4984872;28;20534;-55
2023/10/29 16:02:39;;;;;;;3.47;1.30;;;;;;;;;;4989960;28;20471;-55
2023/10/29 16:05:06;;;;;;;1.50;0.67;;;;;;;;;;4986596;28;20530;-57
2023/10/29 16:07:33;;;;;;;2.00;0.70;;;;;;;;;;4981158;28;20440;-55
2023/10/29 16:10:01;;;;;;;1.50;0.50;;;;;;;;;;4984915;28;20475;-57
2023/10/29 16:12:28;;;;;;;1.40;0.47;;;;;;;;;;4990534;28;20446;-55
2023/10/29 16:14:56;;;;;;;1.60;0.50;;;;;;;;;;4990459;28;20569;-55
2023/10/29 16:17:25;;;;;;;1.90;0.60;;;;;;;;;;4990573;28;20482;-54
2023/10/29 16:19:52;;;;;;;1.50;0.50;;;;;;;;;;4990708;28;20475;-54
2023/10/29 16:22:19;;;;;;;1.90;0.90;;;;;;;;;;4989663;28;20444;-55
2023/10/29 16:24:47;;;;;;;1.30;0.47;;;;;;;;;;4971723;28;20866;-56
2023/10/29 16:27:14;;;;;;;1.30;0.50;;;;;;;;;;4972072;28;20932;-56
2023/10/29 16:29:41;;;;;;;1.50;0.70;;;;;;;;;;4975467;28;20495;-56
2023/10/29 16:32:09;;;;;;;1.90;0.90;;;;;;;;;;4972417;28;20918;-55
2023/10/29 16:34:39;;;;;;;2.50;1.00;;;;;;;;;;4975342;28;20571;-56
2023/10/29 16:37:07;;;;;;;1.97;1.37;;;;;;;;;;4972701;28;20529;-52
2023/10/29 16:39:35;;;;;;;1.87;1.60;;;;;;;;;;4973843;28;20467;-56
2023/10/29 16:42:02;;;;;;;1.67;1.00;;;;;;;;;;4970883;28;20444;-56
2023/10/29 16:44:30;;;;;;;2.10;1.43;;;;;;;;;;4987531;28;20451;-56
2023/10/29 16:46:58;;;;;;;1.70;0.70;;;;;;;;;;4990126;28;20502;-55
2023/10/29 16:49:25;;;;;;;2.20;1.10;;;;;;;;;;4989541;28;20530;-55
2023/10/29 16:51:54;;;;;;;1.90;0.80;;;;;;;;;;4990121;28;20518;-57
2023/10/29 16:54:21;;;;;;;1.70;0.90;;;;;;;;;;4983139;28;20448;-56
2023/10/29 16:56:49;;;;;;;1.90;0.90;;;;;;;;;;4990210;28;20939;-55
2023/10/29 16:59:16;;;;;;;1.93;1.10;;;;;;;;;;4982118;28;21038;-54
2023/10/29 17:01:43;;;;;;;1.60;1.00;;;;;;;;;;4973852;28;20547;-58
2023/10/29 17:04:10;;;;;;;1.67;0.80;;;;;;;;;;4972807;28;20500;-58
2023/10/29 17:06:38;;;;;;;1.30;0.50;;;;;;;;;;4986259;28;20476;-56
2023/10/29 17:09:06;;;;;;;1.93;0.80;;;;;;;;;;4976703;28;20832;-55
2023/10/29 17:11:34;;;;;;;1.70;0.93;;;;;;;;;;4987412;28;20526;-53
2023/10/29 17:14:02;;;;;;;1.40;0.70;;;;;;;;;;4984920;28;20472;-56
2023/10/29 17:16:29;;;;;;;1.50;0.63;;;;;;;;;;4989672;28;20486;-53
2023/10/29 17:18:56;;;;;;;1.67;0.90;;;;;;;;;;4989648;28;20463;-53
2023/10/29 17:21:23;;;;;;;2.60;0.80;;;;;;;;;;4989790;28;20458;-54
2023/10/29 17:23:50;;;;;;;1.40;0.67;;;;;;;;;;4989825;28;20472;-54
2023/10/29 17:26:20;;;;;;;1.40;0.70;;;;;;;;;;4989524;28;20444;-56
2023/10/29 17:28:47;;;;;;;1.83;0.93;;;;;;;;;;4987343;28;20491;-55
2023/10/29 17:31:15;;;;;;;1.80;0.70;;;;;;;;;;4974887;28;20473;-53
2023/10/29 17:33:42;;;;;;;1.63;1.07;;;;;;;;;;4970642;28;20472;-54
2023/10/29 17:36:10;;;;;;;1.70;0.70;;;;;;;;;;4967106;28;20543;-55
2023/10/29 17:38:37;;;;;;;1.40;0.70;;;;;;;;;;4973333;28;20456;-52
2023/10/29 17:41:05;;;;;;;1.80;1.07;;;;;;;;;;4981167;28;20448;-52
2023/10/29 17:43:33;;;;;;;1.87;1.07;;;;;;;;;;4989164;28;20444;-55
2023/10/29 17:46:01;;;;;;;1.60;0.83;;;;;;;;;;4989113;28;20468;-55
2023/10/29 17:48:28;;;;;;;5.40;1.27;;;;;;;;;;4988401;28;20552;-54
2023/10/29 17:50:56;;;;;;;1.60;0.77;;;;;;;;;;4984663;28;20473;-53
2023/10/29 17:53:23;;;;;;;2.07;1.00;;;;;;;;;;4986810;28;20444;-51
2023/10/29 17:55:52;;;;;;;2.20;0.80;;;;;;;;;;4987973;28;20511;-54
2023/10/29 17:58:19;;;;;;;2.33;0.60;;;;;;;;;;4987492;28;20582;-55
2023/10/29 18:00:48;;;;;;;1.53;0.60;;;;;;;;;;4983591;28;20448;-52
2023/10/29 18:03:16;;;;;;;1.50;0.70;;;;;;;;;;4989184;28;20440;-54
2023/10/29 18:05:43;;;;;;;4.07;0.70;;;;;;;;;;4987014;28;20802;-53
2023/10/29 18:08:10;;;;;;;1.97;0.80;;;;;;;;;;4988841;28;20547;-55
2023/10/29 18:10:39;;;;;;;1.40;0.50;;;;;;;;;;4987378;28;20956;-55
2023/10/29 18:13:07;;;;;;;1.70;0.70;;;;;;;;;;4988862;28;20835;-54
2023/10/29 18:15:34;;;;;;;2.10;0.80;;;;;;;;;;4987986;28;20483;-54
2023/10/29 18:18:03;;;;;;;1.40;0.60;;;;;;;;;;4988566;28;20467;-52
2023/10/29 18:20:30;;;;;;;2.13;1.00;;;;;;;;;;4986870;28;20444;-55
2023/10/29 18:22:58;;;;;;;1.50;0.60;;;;;;;;;;4987944;28;20545;-54
2023/10/29 18:25:25;;;;;;;1.50;0.80;;;;;;;;;;4988422;28;20487;-53
2023/10/29 18:27:54;;;;;;;2.50;0.73;;;;;;;;;;4988611;28;20518;-56
2023/10/29 18:30:22;;;;;;;1.50;0.50;;;;;;;;;;4981794;28;20810;-52
2023/10/29 18:32:52;;;;;;;2.80;0.77;;;;;;;;;;4988433;28;20480;-54
2023/10/29 18:35:20;;;;;;;1.63;0.60;;;;;;;;;;4988362;28;20579;-54
2023/10/29 18:37:50;;;;;;;1.40;0.73;;;;;;;;;;4988082;28;20998;-54
2023/10/29 18:40:18;;;;;;;1.40;0.60;;;;;;;;;;4987548;28;20679;-53
2023/10/29 18:42:45;;;;;;;1.40;0.57;;;;;;;;;;4986063;28;20534;-55
2023/10/29 18:45:12;;;;;;;1.40;0.70;;;;;;;;;;4986588;28;20467;-53
2023/10/29 18:47:40;;;;;;;2.50;1.30;;;;;;;;;;4985425;28;20467;-55
2023/10/29 18:50:08;;;;;;;4.80;1.70;;;;;;;;;;4982431;28;20460;-55
2023/10/29 18:52:37;;;;;;;4.73;0.93;;;;;;;;;;4986304;28;20447;-55
2023/10/29 18:55:05;;;;;;;2.37;0.83;;;;;;;;;;4979874;28;20480;-55
2023/10/29 18:57:32;;;;;;;2.80;0.83;;;;;;;;;;4987621;28;21038;-53
2023/10/29 19:00:00;;;;;;;3.53;1.17;;;;;;;;;;4984446;28;20931;-56
2023/10/29 19:02:27;;;;;;;2.50;1.20;;;;;;;;;;4987897;28;20494;-55
2023/10/29 19:04:54;;;;;;;2.17;1.23;;;;;;;;;;4979109;28;20507;-55
2023/10/29 19:07:21;;;;;;;1.40;0.70;;;;;;;;;;4973720;28;20749;-55
2023/10/29 19:09:50;;;;;;;2.03;1.00;;;;;;;;;;4969370;28;20608;-55
2023/10/29 19:12:17;;;;;;;2.10;0.80;;;;;;;;;;4983585;28;20468;-52
2023/10/29 19:14:45;;;;;;;1.50;0.70;;;;;;;;;;4987230;28;20476;-54
2023/10/29 19:17:12;;;;;;;2.07;0.80;;;;;;;;;;4980021;28;20516;-55
2023/10/29 19:19:40;;;;;;;2.13;0.70;;;;;;;;;;4965326;28;21263;-52
2023/10/29 19:22:11;;;;;;;2.53;1.07;;;;;;;;;;4967032;28;20466;-53
2023/10/29 19:24:39;;;;;;;1.40;0.63;;;;;;;;;;4966731;28;20511;-52
2023/10/29 19:27:09;;;;;;;1.70;0.63;;;;;;;;;;4967450;28;20439;-54
2023/10/29 19:29:37;;;;;;;1.70;0.67;;;;;;;;;;4967780;28;20457;-52
2023/10/29 19:32:04;;;;;;;1.40;0.50;;;;;;;;;;4966114;28;20907;-53
2023/10/29 19:34:31;;;;;;;1.80;0.70;;;;;;;;;;4968640;28;20432;-54
2023/10/29 19:36:58;;;;;;;2.37;0.80;;;;;;;;;;4972412;28;21012;-53
2023/10/29 19:39:26;;;;;;;2.10;0.80;;;;;;;;;;4971954;28;20488;-54
2023/10/29 19:41:53;;;;;;;1.73;0.73;;;;;;;;;;4971730;28;20531;-52
2023/10/29 19:44:22;;;;;;;1.50;0.57;;;;;;;;;;4971171;28;20477;-55
2023/10/29 19:46:50;;;;;;;3.50;1.10;;;;;;;;;;4972038;28;20513;-55
2023/10/29 19:49:17;;;;;;;1.80;0.80;;;;;;;;;;4970498;28;20548;-52
2023/10/29 19:51:44;;;;;;;1.97;0.50;;;;;;;;;;4970665;28;20504;-55
2023/10/29 19:54:12;;;;;;;1.50;0.70;;;;;;;;;;4971100;28;20535;-55
2023/10/29 19:56:40;;;;;;;2.80;1.07;;;;;;;;;;4971333;28;20487;-54
2023/10/29 19:59:08;;;;;;;3.77;2.00;;;;;;;;;;4971991;28;20916;-54
2023/10/29 20:01:36;;;;;;;1.97;1.10;;;;;;;;;;4972251;28;20535;-55
2023/10/29 20:04:04;;;;;;;3.47;0.90;;;;;;;;;;4968658;28;20472;-54
2023/10/29 20:06:31;;;;;;;2.60;1.50;;;;;;;;;;4970523;28;20469;-54
2023/10/29 20:08:58;;;;;;;2.20;1.10;;;;;;;;;;4970498;28;20464;-55
2023/10/29 20:11:26;;;;;;;1.40;0.60;;;;;;;;;;4970653;28;20535;-55
2023/10/29 20:13:53;;;;;;;1.60;0.83;;;;;;;;;;4970830;28;20445;-55
2023/10/29 20:16:21;;;;;;;1.90;0.87;;;;;;;;;;4970262;28;20697;-53
2023/10/29 20:18:50;;;;;;;2.00;0.80;;;;;;;;;;4971176;28;20523;-55
2023/10/29 20:21:19;;;;;;;1.70;0.67;;;;;;;;;;4972072;28;20500;-53
2023/10/29 20:23:46;;;;;;;1.50;0.60;;;;;;;;;;4971848;28;20932;-53
2023/10/29 20:26:14;;;;;;;1.70;0.90;;;;;;;;;;4972013;28;20531;-53
2023/10/29 20:28:41;;;;;;;1.50;0.70;;;;;;;;;;4971493;28;20893;-53
2023/10/29 20:31:08;;;;;;;2.53;1.10;;;;;;;;;;4971889;28;20469;-54
2023/10/29 20:33:36;;;;;;;2.57;0.73;;;;;;;;;;4971669;28;20520;-56
2023/10/29 20:36:05;;;;;;;1.70;0.80;;;;;;;;;;4968979;28;21073;-53
2023/10/29 20:38:33;;;;;;;2.17;0.67;;;;;;;;;;4971030;28;20636;-54
2023/10/29 20:41:00;;;;;;;1.70;0.60;;;;;;;;;;4971364;28;20948;-54
2023/10/29 20:43:28;;;;;;;1.77;1.07;;;;;;;;;;4971220;28;20445;-54
2023/10/29 20:45:55;;;;;;;3.50;0.90;;;;;;;;;;4971415;28;20520;-53
2023/10/29 20:48:22;;;;;;;1.50;0.80;;;;;;;;;;4971012;28;20496;-56
2023/10/29 20:50:53;;;;;;;1.73;0.80;;;;;;;;;;4971573;28;20705;-54
2023/10/29 20:53:22;;;;;;;2.33;0.80;;;;;;;;;;4971155;28;20445;-53
2023/10/29 20:55:49;;;;;;;1.83;0.80;;;;;;;;;;4971175;28;20512;-54
2023/10/29 20:58:17;;;;;;;2.07;1.00;;;;;;;;;;4974369;23;20529;-84
2023/10/29 21:00:47;;;;;;;1.80;0.80;;;;;;;;;;4953029;28;21110;-85
2023/10/29 21:03:14;;;;;;;1.70;0.77;;;;;;;;;;4947191;28;20468;-84
2023/10/29 21:05:42;;;;;;;1.80;0.73;;;;;;;;;;4933756;29;20442;-84
2023/10/29 21:08:10;;;;;;;1.47;0.73;;;;;;;;;;4955965;23;20525;-56
2023/10/29 21:10:38;;;;;;;2.93;0.80;;;;;;;;;;4934502;29;20483;-58
2023/10/29 21:13:06;;;;;;;2.00;0.70;;;;;;;;;;4932884;29;20446;-55
2023/10/29 21:15:33;;;;;;;1.60;0.70;;;;;;;;;;4945366;29;20900;-55
2023/10/29 21:18:00;;;;;;;1.73;0.80;;;;;;;;;;4928113;29;20443;-55
2023/10/29 21:20:28;;;;;;;1.40;0.60;;;;;;;;;;4931669;29;20435;-56
2023/10/29 21:22:55;;;;;;;1.73;0.93;;;;;;;;;;4930772;29;20910;-54
2023/10/29 21:25:22;;;;;;;2.33;0.77;;;;;;;;;;4937983;29;20442;-56
2023/10/29 21:27:51;;;;;;;2.37;1.00;;;;;;;;;;4936635;29;20747;-55
2023/10/29 21:30:18;;;;;;;2.03;0.80;;;;;;;;;;4932706;29;20526;-56
2023/10/29 21:32:46;;;;;;;1.87;0.90;;;;;;;;;;4934028;29;20450;-55
2023/10/29 21:35:13;;;;;;;2.20;1.10;;;;;;;;;;4931393;29;20478;-54
2023/10/29 21:37:40;;;;;;;1.60;0.90;;;;;;;;;;4932171;29;20974;-55
2023/10/29 21:40:08;;;;;;;1.60;0.83;;;;;;;;;;4932804;29;21044;-55
2023/10/29 21:42:35;;;;;;;2.20;0.93;;;;;;;;;;4935568;29;20945;-54
2023/10/29 21:45:04;;;;;;;1.80;0.90;;;;;;;;;;4932518;29;20482;-55
2023/10/29 21:47:31;;;;;;;1.90;0.80;;;;;;;;;;4935570;29;21033;-55
2023/10/29 21:49:59;;;;;;;2.90;0.70;;;;;;;;;;4933713;29;20473;-55
2023/10/29 21:52:26;;;;;;;2.90;0.70;;;;;;;;;;4929990;29;20530;-55
2023/10/29 21:54:53;;;;;;;1.77;0.77;;;;;;;;;;4926972;29;20864;-55
2023/10/29 21:57:21;;;;;;;1.97;0.70;;;;;;;;;;4926734;29;21023;-55
2023/10/29 21:59:49;;;;;;;1.97;0.90;;;;;;;;;;4929328;29;20469;-56
2023/10/29 22:02:18;;;;;;;3.97;1.27;;;;;;;;;;4932969;29;20542;-56
2023/10/29 22:04:45;;;;;;;1.90;0.80;;;;;;;;;;4935720;29;20446;-55
2023/10/29 22:07:12;;;;;;;1.30;0.60;;;;;;;;;;4934326;29;20550;-55
2023/10/29 22:09:39;;;;;;;1.40;0.60;;;;;;;;;;4935368;29;20459;-55
2023/10/29 22:12:07;;;;;;;1.60;0.90;;;;;;;;;;4934643;29;20439;-54
2023/10/29 22:14:34;;;;;;;1.80;0.70;;;;;;;;;;4935654;29;20508;-56
2023/10/29 22:17:02;;;;;;;2.20;0.90;;;;;;;;;;4930226;29;20561;-55
2023/10/29 22:19:30;;;;;;;1.80;0.50;;;;;;;;;;4934083;29;20467;-54
2023/10/29 22:21:59;;;;;;;1.30;0.60;;;;;;;;;;4931446;29;20443;-56
2023/10/29 22:24:26;;;;;;;1.43;0.63;;;;;;;;;;4932382;29;21001;-55
2023/10/29 22:26:54;;;;;;;1.97;1.00;;;;;;;;;;4933657;28;20505;-56
2023/10/29 22:29:22;;;;;;;2.27;0.70;;;;;;;;;;4926910;29;20605;-55
2023/10/29 22:31:49;;;;;;;1.60;0.70;;;;;;;;;;4932033;29;20807;-56
2023/10/29 22:34:16;;;;;;;1.73;0.80;;;;;;;;;;4932543;29;20950;-56
2023/10/29 22:36:45;;;;;;;1.80;0.60;;;;;;;;;;4934595;29;20545;-54
2023/10/29 22:39:12;;;;;;;1.83;0.70;;;;;;;;;;4933060;29;21385;-54
2023/10/29 22:41:39;;;;;;;1.80;0.70;;;;;;;;;;4935698;29;20863;-56
2023/10/29 22:44:07;;;;;;;1.40;0.63;;;;;;;;;;4934037;29;20470;-54
2023/10/29 22:46:34;;;;;;;1.30;0.50;;;;;;;;;;4936072;29;20469;-55
2023/10/29 22:49:01;;;;;;;1.57;0.53;;;;;;;;;;4935954;29;20501;-54
2023/10/29 22:51:28;;;;;;;1.40;0.70;;;;;;;;;;4939422;29;20890;-55
2023/10/29 22:53:57;;;;;;;1.73;0.70;;;;;;;;;;4928747;29;20478;-55
2023/10/29 22:56:24;;;;;;;2.30;0.80;;;;;;;;;;4945344;29;20898;-54
2023/10/29 22:58:51;;;;;;;1.60;0.70;;;;;;;;;;4949477;29;20505;-55
2023/10/29 23:01:19;;;;;;;1.93;0.70;;;;;;;;;;4944540;29;20508;-55
2023/10/29 23:03:46;;;;;;;1.97;0.70;;;;;;;;;;4945950;29;20468;-55
2023/10/29 23:06:14;;;;;;;2.17;0.70;;;;;;;;;;4941864;29;20459;-56
2023/10/29 23:08:41;;;;;;;2.43;0.70;;;;;;;;;;4946227;29;20516;-55
2023/10/29 23:11:15;;;;;;;1.37;0.60;;;;;;;;;;4951607;29;20497;-54
2023/10/29 23:13:42;;;;;;;1.70;0.70;;;;;;;;;;4940292;29;20454;-55
2023/10/29 23:16:09;;;;;;;1.47;0.70;;;;;;;;;;4947845;29;20540;-55
2023/10/29 23:18:37;;;;;;;2.80;0.90;;;;;;;;;;4947814;29;20520;-55
2023/10/29 23:21:05;;;;;;;1.30;0.50;;;;;;;;;;4946333;28;20464;-54
2023/10/29 23:23:32;;;;;;;1.87;0.70;;;;;;;;;;4948871;29;20442;-54
2023/10/29 23:25:59;;;;;;;2.30;0.60;;;;;;;;;;4941424;29;20454;-55
2023/10/29 23:28:28;;;;;;;1.50;0.53;;;;;;;;;;4934589;29;20490;-54
2023/10/29 23:30:55;;;;;;;2.17;0.80;;;;;;;;;;4935916;29;20485;-55
2023/10/29 23:33:22;;;;;;;1.50;0.67;;;;;;;;;;4936174;29;20467;-54
2023/10/29 23:35:52;;;;;;;2.47;0.80;;;;;;;;;;4942034;29;20821;-54
2023/10/29 23:38:19;;;;;;;1.63;0.70;;;;;;;;;;4933652;29;20512;-54
2023/10/29 23:40:46;;;;;;;1.50;0.50;;;;;;;;;;4950880;29;20446;-54
2023/10/29 23:43:15;;;;;;;2.00;0.60;;;;;;;;;;4951734;29;20446;-54
2023/10/29 23:45:43;;;;;;;1.40;0.60;;;;;;;;;;4941784;29;20513;-54
2023/10/29 23:48:11;;;;;;;1.40;0.60;;;;;;;;;;4947257;29;20520;-55
2023/10/29 23:50:39;;;;;;;1.50;0.70;;;;;;;;;;4945114;29;20454;-54
2023/10/29 23:53:06;;;;;;;3.80;0.90;;;;;;;;;;4945590;29;20823;-54
2023/10/29 23:55:33;;;;;;;1.30;0.57;;;;;;;;;;4942726;29;20537;-54
2023/10/29 23:58:00;;;;;;;1.50;0.80;;;;;;;;;;4940628;29;20513;-55
